createdAt,value
2017-08-28T00:02:17.452Z,81.00
2017-08-28T00:04:51.033Z,81.30
2017-08-28T00:07:24.550Z,81.10
2017-08-28T00:09:58.298Z,80.80
2017-08-28T00:12:31.830Z,81.10
2017-08-28T00:15:05.378Z,81.00
2017-08-28T00:17:39.015Z,82.00
2017-08-28T00:20:12.630Z,81.90
2017-08-28T00:22:46.138Z,81.90
2017-08-28T00:25:19.691Z,81.80
2017-08-28T00:27:53.238Z,82.20
2017-08-28T00:30:26.787Z,82.00
2017-08-28T00:33:00.452Z,81.80
2017-08-28T00:35:34.011Z,81.80
2017-08-28T00:38:07.521Z,81.50
2017-08-28T00:40:41.082Z,81.30
2017-08-28T00:43:15.596Z,81.70
2017-08-28T00:45:49.342Z,81.90
2017-08-28T00:48:22.941Z,81.60
2017-08-28T00:50:56.446Z,81.70
2017-08-28T00:53:30.865Z,82.20
2017-08-28T00:56:04.553Z,82.20
2017-08-28T00:58:38.083Z,81.80
2017-08-28T01:01:11.673Z,82.40
2017-08-28T01:03:45.342Z,82.30
2017-08-28T01:06:19.059Z,82.30
2017-08-28T01:08:52.663Z,82.40
2017-08-28T01:11:26.254Z,82.30
2017-08-28T01:13:59.785Z,82.50
2017-08-28T01:16:33.495Z,82.20
2017-08-28T01:19:07.092Z,82.00
2017-08-28T01:21:40.584Z,82.60
2017-08-28T01:24:14.152Z,82.80
2017-08-28T01:26:47.722Z,82.50
2017-08-28T01:29:21.467Z,82.40
2017-08-28T01:31:58.492Z,82.70
2017-08-28T01:34:32.066Z,82.70
2017-08-28T01:37:05.636Z,82.20
2017-08-28T01:39:39.352Z,82.30
2017-08-28T01:42:12.850Z,82.20
2017-08-28T01:44:46.423Z,82.10
2017-08-28T01:47:20.012Z,82.20
2017-08-28T01:49:53.701Z,82.30
2017-08-28T01:52:27.245Z,82.70
2017-08-28T01:55:00.755Z,82.60
2017-08-28T01:57:34.295Z,82.50
2017-08-28T02:00:07.949Z,82.60
2017-08-28T02:02:41.548Z,82.80
2017-08-28T02:05:15.143Z,82.50
2017-08-28T02:07:48.844Z,82.50
2017-08-28T02:10:22.529Z,82.40
2017-08-28T02:12:56.042Z,82.50
2017-08-28T02:15:29.606Z,82.20
2017-08-28T02:18:03.226Z,82.30
2017-08-28T02:20:36.928Z,82.30
2017-08-28T02:23:10.425Z,82.50
2017-08-28T02:25:44.060Z,82.30
2017-08-28T02:28:17.612Z,82.00
2017-08-28T02:30:51.136Z,82.00
2017-08-28T02:33:24.788Z,82.20
2017-08-28T02:35:58.288Z,82.10
2017-08-28T02:38:31.809Z,81.80
2017-08-28T02:41:05.335Z,81.70
2017-08-28T02:43:38.984Z,81.60
2017-08-28T02:46:12.636Z,81.60
2017-08-28T02:48:46.208Z,81.60
2017-08-28T02:51:19.717Z,81.40
2017-08-28T02:53:53.301Z,82.20
2017-08-28T02:56:26.852Z,82.50
2017-08-28T02:59:00.597Z,82.20
2017-08-28T03:01:34.168Z,82.20
2017-08-28T03:04:07.698Z,82.60
2017-08-28T03:06:41.227Z,81.70
2017-08-28T03:09:14.800Z,81.40
2017-08-28T03:11:48.514Z,81.30
2017-08-28T03:14:22.057Z,81.30
2017-08-28T03:16:55.790Z,81.30
2017-08-28T03:19:29.435Z,81.70
2017-08-28T03:22:03.075Z,81.90
2017-08-28T03:24:36.832Z,81.80
2017-08-28T03:27:10.381Z,82.00
2017-08-28T03:29:44.768Z,82.30
2017-08-28T03:35:17.860Z,82.10
2017-08-28T03:37:51.413Z,82.20
2017-08-28T03:40:24.909Z,82.60
2017-08-28T03:42:58.437Z,81.90
2017-08-28T03:45:31.944Z,82.30
2017-08-28T03:48:05.495Z,81.90
2017-08-28T03:50:39.146Z,81.70
2017-08-28T03:53:12.642Z,81.90
2017-08-28T03:55:46.215Z,82.40
2017-08-28T03:58:19.824Z,82.20
2017-08-28T04:00:53.371Z,82.60
2017-08-28T04:03:27.089Z,82.90
2017-08-28T04:06:02.635Z,83.10
2017-08-28T04:08:36.157Z,83.10
2017-08-28T04:11:09.656Z,83.10
2017-08-28T04:13:43.221Z,82.60
2017-08-28T04:16:16.872Z,82.40
2017-08-28T04:18:50.376Z,82.70
2017-08-28T04:21:23.958Z,82.80
2017-08-28T04:23:57.499Z,82.80
2017-08-28T04:26:31.794Z,83.30
2017-08-28T04:29:05.437Z,83.20
2017-08-28T04:31:39.046Z,83.20
2017-08-28T04:34:12.818Z,82.90
2017-08-28T04:36:46.347Z,83.20
2017-08-28T04:39:20.108Z,83.10
2017-08-28T04:41:53.663Z,82.60
2017-08-28T04:44:27.208Z,82.50
2017-08-28T04:47:07.172Z,82.50
2017-08-28T04:49:40.710Z,82.60
2017-08-28T04:52:14.340Z,82.80
2017-08-28T04:54:47.912Z,82.90
2017-08-28T04:57:21.522Z,83.10
2017-08-28T04:59:55.119Z,83.00
2017-08-28T05:02:28.677Z,82.80
2017-08-28T05:05:02.393Z,82.80
2017-08-28T05:07:36.049Z,83.80
2017-08-28T05:10:09.628Z,83.30
2017-08-28T05:12:43.200Z,83.20
2017-08-28T05:15:16.726Z,84.40
2017-08-28T05:17:50.332Z,84.90
2017-08-28T05:20:23.939Z,84.60
2017-08-28T05:22:57.520Z,84.80
2017-08-28T05:25:31.110Z,84.50
2017-08-28T05:28:04.768Z,84.30
2017-08-28T05:30:38.345Z,83.90
2017-08-28T05:33:11.844Z,84.10
2017-08-28T05:35:45.444Z,84.50
2017-08-28T05:38:18.967Z,84.80
2017-08-28T05:40:52.649Z,85.50
2017-08-28T05:43:26.308Z,86.80
2017-08-28T05:45:59.888Z,87.50
2017-08-28T05:48:33.489Z,87.60
2017-08-28T05:51:07.268Z,87.00
2017-08-28T05:53:40.813Z,86.60
2017-08-28T05:56:15.163Z,86.50
2017-08-28T05:58:48.672Z,86.40
2017-08-28T06:01:23.284Z,86.50
2017-08-28T06:03:57.026Z,85.90
2017-08-28T06:06:30.524Z,86.60
2017-08-28T06:09:04.079Z,87.30
2017-08-28T06:11:37.682Z,88.10
2017-08-28T06:14:11.395Z,87.80
2017-08-28T06:16:44.897Z,88.20
2017-08-28T06:19:18.412Z,87.40
2017-08-28T06:21:52.708Z,88.20
2017-08-28T06:24:26.249Z,88.20
2017-08-28T06:26:59.747Z,88.70
2017-08-28T06:29:33.326Z,88.60
2017-08-28T06:32:06.918Z,90.10
2017-08-28T06:34:40.468Z,90.50
2017-08-28T06:37:14.001Z,90.30
2017-08-28T06:39:47.710Z,90.40
2017-08-28T06:42:21.277Z,89.10
2017-08-28T06:44:54.790Z,89.90
2017-08-28T06:47:28.460Z,87.90
2017-08-28T06:50:02.106Z,87.20
2017-08-28T06:52:35.665Z,86.40
2017-08-28T06:55:09.211Z,86.30
2017-08-28T06:57:42.794Z,85.80
2017-08-28T07:00:16.428Z,85.10
2017-08-28T07:02:50.009Z,84.90
2017-08-28T07:05:23.521Z,84.80
2017-08-28T07:07:57.069Z,85.30
2017-08-28T07:10:30.737Z,84.40
2017-08-28T07:13:04.308Z,84.50
2017-08-28T07:15:37.831Z,84.20
2017-08-28T07:18:11.412Z,84.10
2017-08-28T07:20:44.944Z,84.00
2017-08-28T07:23:18.532Z,84.00
2017-08-28T07:25:52.090Z,84.10
2017-08-28T07:28:25.583Z,83.70
2017-08-28T07:30:59.146Z,83.80
2017-08-28T07:33:32.818Z,83.60
2017-08-28T07:36:06.526Z,83.40
2017-08-28T07:38:40.025Z,83.30
2017-08-28T07:41:13.543Z,83.00
2017-08-28T07:43:47.243Z,83.10
2017-08-28T07:46:20.955Z,82.70
2017-08-28T07:48:54.624Z,82.80
2017-08-28T07:51:28.185Z,82.70
2017-08-28T07:54:01.774Z,82.90
2017-08-28T07:56:35.437Z,82.50
2017-08-28T07:59:09.015Z,82.40
2017-08-28T08:01:42.565Z,82.20
2017-08-28T08:04:16.131Z,82.10
2017-08-28T08:06:49.834Z,82.00
2017-08-28T08:09:23.482Z,81.90
2017-08-28T08:11:57.071Z,81.60
2017-08-28T08:14:30.588Z,81.40
2017-08-28T08:17:04.099Z,81.40
2017-08-28T08:19:37.792Z,81.50
2017-08-28T08:22:11.293Z,81.40
2017-08-28T08:24:45.608Z,81.40
2017-08-28T08:27:19.112Z,81.30
2017-08-28T08:29:52.776Z,81.00
2017-08-28T08:32:26.383Z,81.10
2017-08-28T08:34:59.964Z,81.20
2017-08-28T08:37:33.516Z,81.50
2017-08-28T08:40:07.176Z,81.60
2017-08-28T08:42:40.739Z,81.40
2017-08-28T08:45:14.313Z,81.10
2017-08-28T08:47:47.849Z,80.60
2017-08-28T08:50:21.393Z,80.60
2017-08-28T08:52:55.047Z,80.40
2017-08-28T08:55:28.686Z,80.40
2017-08-28T08:58:02.238Z,80.40
2017-08-28T09:00:35.752Z,80.20
2017-08-28T09:03:09.581Z,79.80
2017-08-28T09:05:43.083Z,79.60
2017-08-28T09:08:16.660Z,79.50
2017-08-28T09:10:50.216Z,79.20
2017-08-28T09:13:23.872Z,79.30
2017-08-28T09:15:57.395Z,79.60
2017-08-28T09:18:31.012Z,79.70
2017-08-28T09:21:04.521Z,79.40
2017-08-28T09:23:38.541Z,79.20
2017-08-28T09:26:12.263Z,79.20
2017-08-28T09:28:45.800Z,79.00
2017-08-28T09:31:19.349Z,78.90
2017-08-28T09:33:52.889Z,79.00
2017-08-28T09:36:26.397Z,78.80
2017-08-28T09:38:59.934Z,79.10
2017-08-28T09:41:34.320Z,79.80
2017-08-28T09:44:07.977Z,79.50
2017-08-28T09:46:41.508Z,79.80
2017-08-28T09:49:15.113Z,80.20
2017-08-28T09:51:48.672Z,80.40
2017-08-28T09:54:22.201Z,78.40
2017-08-28T09:56:55.765Z,78.30
2017-08-28T09:59:29.309Z,78.80
2017-08-28T10:02:02.829Z,79.00
2017-08-28T10:04:36.365Z,77.50
2017-08-28T10:07:10.042Z,76.80
2017-08-28T10:09:43.648Z,76.30
2017-08-28T10:12:17.178Z,75.70
2017-08-28T10:14:50.840Z,75.50
2017-08-28T10:17:24.429Z,75.30
2017-08-28T10:19:58.004Z,75.20
2017-08-28T10:22:31.578Z,75.20
2017-08-28T10:25:05.231Z,75.40
2017-08-28T10:27:38.786Z,75.50
2017-08-28T10:30:12.383Z,75.70
2017-08-28T10:32:46.137Z,75.80
2017-08-28T10:35:19.700Z,75.60
2017-08-28T10:37:53.354Z,75.60
2017-08-28T10:40:26.905Z,75.90
2017-08-28T10:43:00.480Z,76.00
2017-08-28T10:45:34.151Z,76.20
2017-08-28T10:48:07.736Z,76.60
2017-08-28T10:50:41.250Z,76.30
2017-08-28T10:53:16.565Z,76.00
2017-08-28T10:55:50.237Z,75.90
2017-08-28T10:58:23.931Z,76.20
2017-08-28T11:00:57.481Z,75.90
2017-08-28T11:03:31.025Z,75.00
2017-08-28T11:06:04.742Z,75.10
2017-08-28T11:08:38.541Z,75.10
2017-08-28T11:11:12.059Z,75.20
2017-08-28T11:13:45.766Z,75.80
2017-08-28T11:16:19.452Z,75.80
2017-08-28T11:18:53.067Z,75.80
2017-08-28T11:21:26.688Z,75.30
2017-08-28T11:24:00.410Z,75.30
2017-08-28T11:26:34.084Z,75.30
2017-08-28T11:29:07.683Z,75.20
2017-08-28T11:31:41.315Z,75.50
2017-08-28T11:34:14.974Z,74.60
2017-08-28T11:36:48.578Z,73.90
2017-08-28T11:39:22.221Z,74.10
2017-08-28T11:41:55.879Z,74.10
2017-08-28T11:44:29.455Z,73.90
2017-08-28T11:47:03.131Z,73.90
2017-08-28T11:49:36.788Z,74.10
2017-08-28T11:52:10.489Z,74.70
2017-08-28T11:54:43.994Z,74.70
2017-08-28T11:57:17.712Z,74.50
2017-08-28T11:59:51.316Z,74.10
2017-08-28T12:02:25.013Z,73.60
2017-08-28T12:04:58.625Z,73.30
2017-08-28T12:07:32.202Z,72.90
2017-08-28T12:10:06.390Z,73.50
2017-08-28T12:12:40.025Z,73.10
2017-08-28T12:15:13.751Z,73.00
2017-08-28T12:17:47.303Z,72.80
2017-08-28T12:20:21.724Z,73.40
2017-08-28T12:22:55.301Z,73.30
2017-08-28T12:25:28.956Z,72.80
2017-08-28T12:28:02.596Z,72.90
2017-08-28T12:30:36.383Z,73.20
2017-08-28T12:33:10.085Z,73.40
2017-08-28T12:35:43.647Z,73.00
2017-08-28T12:38:17.216Z,72.70
2017-08-28T12:40:50.840Z,71.80
2017-08-28T12:43:24.356Z,71.50
2017-08-28T12:45:57.872Z,71.10
2017-08-28T12:48:31.413Z,71.80
2017-08-28T12:51:05.082Z,71.60
2017-08-28T12:53:38.598Z,71.40
2017-08-28T12:56:12.290Z,71.90
2017-08-28T12:58:46.089Z,71.20
2017-08-28T13:01:20.764Z,69.70
2017-08-28T13:03:55.425Z,69.80
2017-08-28T13:06:29.048Z,70.20
2017-08-28T13:09:02.653Z,70.00
2017-08-28T13:11:36.406Z,70.10
2017-08-28T13:14:11.234Z,69.40
2017-08-28T13:16:45.077Z,68.90
2017-08-28T13:19:18.633Z,69.10
2017-08-28T13:21:52.188Z,69.50
2017-08-28T13:24:25.723Z,69.80
2017-08-28T13:26:59.510Z,70.20
2017-08-28T13:29:33.280Z,69.70
2017-08-28T13:32:07.021Z,69.80
2017-08-28T13:34:40.879Z,69.50
2017-08-28T13:37:14.440Z,69.50
2017-08-28T13:39:48.159Z,69.60
2017-08-28T13:42:21.858Z,68.50
2017-08-28T13:44:57.156Z,68.20
2017-08-28T13:47:30.914Z,68.30
2017-08-28T13:50:04.604Z,68.40
2017-08-28T13:52:38.377Z,69.00
2017-08-28T13:55:12.863Z,69.50
2017-08-28T13:57:46.482Z,69.40
2017-08-28T14:00:20.218Z,69.60
2017-08-28T14:02:53.983Z,69.60
2017-08-28T14:05:27.895Z,69.20
2017-08-28T14:08:03.336Z,68.70
2017-08-28T14:10:37.019Z,68.60
2017-08-28T14:13:10.778Z,68.80
2017-08-28T14:15:44.447Z,69.10
2017-08-28T14:18:17.984Z,68.90
2017-08-28T14:20:51.622Z,69.60
2017-08-28T14:23:25.199Z,70.40
2017-08-28T14:25:58.749Z,69.80
2017-08-28T14:28:32.612Z,69.70
2017-08-28T14:31:06.260Z,69.50
2017-08-28T14:33:39.848Z,69.00
2017-08-28T14:36:14.532Z,68.80
2017-08-28T14:38:48.098Z,68.40
2017-08-28T14:41:21.872Z,67.80
2017-08-28T14:43:55.426Z,67.50
2017-08-28T14:46:29.073Z,67.30
2017-08-28T14:49:02.860Z,66.70
2017-08-28T14:51:36.714Z,66.60
2017-08-28T14:54:10.376Z,66.80
2017-08-28T14:56:44.079Z,66.30
2017-08-28T14:59:17.798Z,66.30
2017-08-28T15:01:51.554Z,66.40
2017-08-28T15:04:25.125Z,66.50
2017-08-28T15:06:58.792Z,66.10
2017-08-28T15:09:32.594Z,65.60
2017-08-28T15:12:06.375Z,65.90
2017-08-28T15:14:40.096Z,65.40
2017-08-28T15:17:13.763Z,65.40
2017-08-28T15:19:47.448Z,64.90
2017-08-28T15:22:22.156Z,64.20
2017-08-28T15:24:56.060Z,63.80
2017-08-28T15:27:29.826Z,63.80
2017-08-28T15:30:03.366Z,64.10
2017-08-28T15:32:37.012Z,64.20
2017-08-28T15:35:10.529Z,65.90
2017-08-28T15:37:44.308Z,66.20
2017-08-28T15:40:18.064Z,67.10
2017-08-28T15:42:51.796Z,67.60
2017-08-28T15:45:25.508Z,67.80
2017-08-28T15:47:59.233Z,68.10
2017-08-28T15:50:32.925Z,68.20
2017-08-28T15:53:06.574Z,68.30
2017-08-28T15:55:40.134Z,68.60
2017-08-28T15:58:13.844Z,68.70
2017-08-28T16:00:47.608Z,68.50
2017-08-28T16:03:21.289Z,68.50
2017-08-28T16:05:54.952Z,68.40
2017-08-28T16:08:28.485Z,68.70
2017-08-28T16:11:02.308Z,68.50
2017-08-28T16:13:35.869Z,68.40
2017-08-28T16:16:09.557Z,68.40
2017-08-28T16:18:43.249Z,68.30
2017-08-28T16:21:16.787Z,68.20
2017-08-28T16:23:50.461Z,68.00
2017-08-28T16:26:24.111Z,68.20
2017-08-28T16:28:58.643Z,68.20
2017-08-28T16:31:32.219Z,68.10
2017-08-28T16:34:06.010Z,68.10
2017-08-28T16:36:39.768Z,68.10
2017-08-28T16:39:13.484Z,67.90
2017-08-28T16:41:47.051Z,68.10
2017-08-28T16:44:20.657Z,68.10
2017-08-28T16:46:54.270Z,68.20
2017-08-28T16:49:28.014Z,68.20
2017-08-28T16:52:01.807Z,68.30
2017-08-28T16:54:35.368Z,68.10
2017-08-28T16:57:08.933Z,68.20
2017-08-28T16:59:42.713Z,68.20
2017-08-28T17:02:16.265Z,68.00
2017-08-28T17:04:49.989Z,67.70
2017-08-28T17:07:23.582Z,67.80
2017-08-28T17:09:57.195Z,67.70
2017-08-28T17:12:31.021Z,67.60
2017-08-28T17:15:04.640Z,67.70
2017-08-28T17:17:38.304Z,67.50
2017-08-28T17:20:11.982Z,67.50
2017-08-28T17:22:46.593Z,67.40
2017-08-28T17:25:20.274Z,67.50
2017-08-28T17:27:54.029Z,67.50
2017-08-28T17:30:27.737Z,67.50
2017-08-28T17:33:01.439Z,68.20
2017-08-28T17:35:34.996Z,67.80
2017-08-28T17:38:08.637Z,67.90
2017-08-28T17:40:43.105Z,68.00
2017-08-28T17:43:16.671Z,68.00
2017-08-28T17:45:50.367Z,68.00
2017-08-28T17:48:24.080Z,68.10
2017-08-28T17:50:57.794Z,68.30
2017-08-28T17:53:31.484Z,68.50
2017-08-28T17:56:05.430Z,68.50
2017-08-28T17:58:39.069Z,68.60
2017-08-28T18:01:12.573Z,68.70
2017-08-28T18:03:46.298Z,68.70
2017-08-28T18:06:19.872Z,68.70
2017-08-28T18:08:53.620Z,68.90
2017-08-28T18:11:27.256Z,68.80
2017-08-28T18:14:01.036Z,69.00
2017-08-28T18:16:34.637Z,69.20
2017-08-28T18:19:08.393Z,69.30
2017-08-28T18:21:41.939Z,69.50
2017-08-28T18:24:15.619Z,69.40
2017-08-28T18:26:49.338Z,69.40
2017-08-28T18:29:23.012Z,69.40
2017-08-28T18:31:56.659Z,69.60
2017-08-28T18:34:30.212Z,69.60
2017-08-28T18:37:03.778Z,69.70
2017-08-28T18:39:37.485Z,69.80
2017-08-28T18:42:11.065Z,69.80
2017-08-28T18:44:44.756Z,69.80
2017-08-28T18:47:18.472Z,69.80
2017-08-28T18:49:52.289Z,69.90
2017-08-28T18:52:26.047Z,69.80
2017-08-28T18:54:59.717Z,69.60
2017-08-28T18:57:33.416Z,69.90
2017-08-28T19:00:06.989Z,70.60
2017-08-28T19:02:40.653Z,69.70
2017-08-28T19:05:14.276Z,69.70
2017-08-28T19:07:47.937Z,69.50
2017-08-28T19:10:21.613Z,69.60
2017-08-28T19:12:55.376Z,69.60
2017-08-28T19:15:29.187Z,70.50
2017-08-28T19:18:02.973Z,69.80
2017-08-28T19:20:36.815Z,69.70
2017-08-28T19:23:10.541Z,70.00
2017-08-28T19:25:44.145Z,69.90
2017-08-28T19:28:17.763Z,69.70
2017-08-28T19:30:51.410Z,69.60
2017-08-28T19:33:25.899Z,69.50
2017-08-28T19:35:59.613Z,69.40
2017-08-28T19:38:33.139Z,69.60
2017-08-28T19:45:41.167Z,69.20
2017-08-28T19:48:14.866Z,69.10
2017-08-28T19:50:48.427Z,69.40
2017-08-28T19:53:22.088Z,69.40
2017-08-28T19:55:55.783Z,69.60
2017-08-28T19:58:29.358Z,69.60
2017-08-28T20:01:03.004Z,69.40
2017-08-28T20:03:36.717Z,69.40
2017-08-28T20:06:10.493Z,69.80
2017-08-28T20:08:44.308Z,69.70
2017-08-28T20:11:18.009Z,69.90
2017-08-28T20:13:51.662Z,70.50
2017-08-28T20:16:25.393Z,69.70
2017-08-28T20:18:59.036Z,70.60
2017-08-28T20:21:32.675Z,71.90
2017-08-28T20:24:06.284Z,72.50
2017-08-28T20:26:39.862Z,73.00
2017-08-28T20:29:13.521Z,73.60
2017-08-28T20:31:47.114Z,74.00
2017-08-28T20:34:20.684Z,74.40
2017-08-28T20:36:54.289Z,74.90
2017-08-28T20:39:28.069Z,75.20
2017-08-28T20:42:01.645Z,75.00
2017-08-28T20:44:35.200Z,75.30
2017-08-28T20:47:08.710Z,75.40
2017-08-28T20:49:42.372Z,75.60
2017-08-28T20:52:16.036Z,76.10
2017-08-28T20:54:49.583Z,76.30
2017-08-28T20:57:23.170Z,76.20
2017-08-28T20:59:56.718Z,76.30
2017-08-28T21:02:30.406Z,76.40
2017-08-28T21:05:03.963Z,76.30
2017-08-28T21:07:37.566Z,76.60
2017-08-28T21:10:11.135Z,76.70
2017-08-28T21:12:44.914Z,76.30
2017-08-28T21:15:18.470Z,75.80
2017-08-28T21:17:52.075Z,75.20
2017-08-28T21:20:25.697Z,75.10
2017-08-28T21:22:59.357Z,75.00
2017-08-28T21:25:33.033Z,75.10
2017-08-28T21:28:06.551Z,75.50
2017-08-28T21:30:40.079Z,76.20
2017-08-28T21:33:13.679Z,75.40
2017-08-28T21:35:47.385Z,75.50
2017-08-28T21:38:21.155Z,76.20
2017-08-28T21:40:54.733Z,76.40
2017-08-28T21:43:28.440Z,76.30
2017-08-28T21:46:02.129Z,75.90
2017-08-28T21:48:35.693Z,76.20
2017-08-28T21:51:09.294Z,76.30
2017-08-28T21:53:42.854Z,76.30
2017-08-28T21:56:16.545Z,76.10
2017-08-28T21:58:50.208Z,75.80
2017-08-28T22:01:23.807Z,75.70
2017-08-28T22:03:58.108Z,76.20
2017-08-28T22:06:31.815Z,75.70
2017-08-28T22:09:05.647Z,76.30
2017-08-28T22:11:40.326Z,77.70
2017-08-28T22:14:14.399Z,78.60
2017-08-28T22:16:48.017Z,78.20
2017-08-28T22:19:21.823Z,77.60
2017-08-28T22:21:55.603Z,77.20
2017-08-28T22:24:29.400Z,76.60
2017-08-28T22:27:03.284Z,77.20
2017-08-28T22:29:37.209Z,76.10
2017-08-28T22:32:10.949Z,76.20
2017-08-28T22:34:44.723Z,76.40
2017-08-28T22:37:18.844Z,76.60
2017-08-28T22:39:52.694Z,76.20
2017-08-28T22:42:27.902Z,76.20
2017-08-28T22:45:01.640Z,75.60
2017-08-28T22:47:35.382Z,75.60
2017-08-28T22:50:09.178Z,75.50
2017-08-28T22:52:42.954Z,75.60
2017-08-28T22:55:16.700Z,75.70
2017-08-28T22:57:50.578Z,76.00
2017-08-28T23:00:24.459Z,76.50
2017-08-28T23:02:58.239Z,76.50
2017-08-28T23:05:31.977Z,76.50
2017-08-28T23:08:05.681Z,76.50
2017-08-28T23:10:39.413Z,76.60
2017-08-28T23:13:13.203Z,76.50
2017-08-28T23:15:47.297Z,76.50
2017-08-28T23:18:21.034Z,77.00
2017-08-28T23:20:55.241Z,77.00
2017-08-28T23:23:29.728Z,77.30
2017-08-28T23:26:03.439Z,77.20
2017-08-28T23:28:37.230Z,77.30
2017-08-28T23:31:11.260Z,77.90
2017-08-28T23:33:46.224Z,77.80
2017-08-28T23:36:19.968Z,77.80
2017-08-28T23:38:53.700Z,78.20
2017-08-28T23:41:27.506Z,77.90
2017-08-28T23:44:01.411Z,77.60
2017-08-28T23:46:35.821Z,76.80
2017-08-28T23:49:09.414Z,76.40
2017-08-28T23:51:43.086Z,75.80
2017-08-28T23:54:16.873Z,75.50
2017-08-28T23:56:50.686Z,75.50
2017-08-28T23:59:24.447Z,75.90
